Yellow Pine, ID (83677)

5:59 PM MDT on July 30, 2016 (GMT -0600)
MesoWest | | Change Station

Elev 6594 ft 44.90 °N, 115.34 °W | Updated 29 minutes ago

Clear
Clear
79 °F
Feels Like 78 °F
N
18
Wind Variable Wind from SW
Gusts 0.0 mph

Today
High -- | Low -- °F
--% Chance of Precip.
Yesterday
High -- | Low -- °F
Precip. -- in
Pressure 29.77 in
Visibility 10.0 miles
Clouds Clear
Heat Index 78 °F
Dew Point 31 °F
Humidity 17%
Rainfall in
Snow Depth Not available.
6:25 AM 9:09 PM
Waning Crescent, 10% visible
METAR KMYL 302351Z AUTO 24011G23KT 10SM CLR 31/M03 A2993 RMK AO2 SLP080 T03061033 10317 20256 56009
Pressure 29.77 in
Visibility 10.0 miles
Clouds Clear
Heat Index 78 °F
Dew Point 31 °F
Humidity 17%
Rainfall in
Snow Depth Not available.
6:25 AM 9:09 PM
Waning Crescent, 10% visible
METAR KMYL 302351Z AUTO 24011G23KT 10SM CLR 31/M03 A2993 RMK AO2 SLP080 T03061033 10317 20256 56009

10-Day Weather Forecast

Almanac

Astronomy

Jul. 30, 2016 Rise Set
Actual Time
Civil Twilight
Nautical Twilight
Astronomical Twilight
Moon
Length of Visible Light
Length of Day
Tomorrow will be .
, % of the Moon is Illuminated

Today's Extremes

State Highs State Lows

Community

WunderPhotos

Upload Photos

1,928,680 photos uploaded!

WunderBlog® & News

Nearby

Air Quality

  Air Quality AQ Index Pollutant
Not available.

Snow Depth

Station Depth Elevation

Earthquake Activity

City Distance Mag. Time & Date
Minimum magnitude displayed is 2.5.

Coastal Water Temperatures

Place Temperature

Stations

Nearby Weather Stations

Station Location Temp. Windchill Dew Point Humidity Wind Precip. Elev Updated Type
                   

Watches & Warnings

There are currently no watches in effect.